Time;durP1;ratioP1;P1;durP2;ratioP2;P2;SDS_P1;SDS_P2;PMS_P1;PMS_P2;Temp;Humidity;BMP_temperature;BMP_pressure;BME280_temperature;BME280_humidity;BME280_pressure;Samples;Min_cycle;Max_cycle;Signal;HPM_P1;HPM_P2
2021/06/06 00:01:01;;;;;;;16.45;9.50;;;;;;;;;;5073230;28;20025;-55
2021/06/06 00:03:31;;;;;;;14.32;8.63;;;;;;;;;;5073123;28;20056;-50
2021/06/06 00:05:59;;;;;;;13.95;6.75;;;;;;;;;;5073285;28;20027;-48
2021/06/06 00:08:26;;;;;;;17.17;7.80;;;;;;;;;;5073202;28;20056;-47
2021/06/06 00:10:57;;;;;;;15.80;7.95;;;;;;;;;;5073014;28;20039;-47
2021/06/06 00:13:24;;;;;;;16.38;7.53;;;;;;;;;;5073386;28;20085;-44
2021/06/06 00:15:50;;;;;;;14.57;6.90;;;;;;;;;;5072873;28;20480;-44
2021/06/06 00:18:16;;;;;;;16.50;8.45;;;;;;;;;;5073029;28;20104;-44
2021/06/06 00:20:42;;;;;;;15.82;6.68;;;;;;;;;;5073064;28;20338;-47
2021/06/06 00:23:09;;;;;;;16.58;7.25;;;;;;;;;;5072866;28;20036;-45
2021/06/06 00:25:35;;;;;;;16.48;7.00;;;;;;;;;;5072815;28;20044;-47
2021/06/06 00:28:01;;;;;;;13.82;7.55;;;;;;;;;;5072690;28;20387;-42
2021/06/06 00:30:28;;;;;;;20.13;8.40;;;;;;;;;;5072963;28;20056;-43
2021/06/06 00:32:54;;;;;;;14.23;9.32;;;;;;;;;;5072809;28;20454;-43
2021/06/06 00:35:21;;;;;;;16.70;8.95;;;;;;;;;;5072921;28;20017;-43
2021/06/06 00:37:47;;;;;;;22.85;11.00;;;;;;;;;;5072756;28;20020;-42
2021/06/06 00:40:15;;;;;;;16.55;10.00;;;;;;;;;;5072809;28;20028;-43
2021/06/06 00:42:41;;;;;;;16.30;7.03;;;;;;;;;;5052742;28;20094;-42
2021/06/06 00:45:11;;;;;;;12.45;7.00;;;;;;;;;;5049167;28;20027;-43
2021/06/06 00:47:38;;;;;;;21.45;9.07;;;;;;;;;;5049608;28;20039;-43
2021/06/06 00:50:10;;;;;;;14.98;10.38;;;;;;;;;;5049263;28;20345;-41
2021/06/06 00:52:37;;;;;;;16.30;7.63;;;;;;;;;;5048883;28;20063;-42
2021/06/06 00:55:07;;;;;;;16.88;11.60;;;;;;;;;;5049564;28;20503;-44
2021/06/06 00:57:34;;;;;;;12.05;6.82;;;;;;;;;;5049132;28;20373;-43
2021/06/06 01:00:07;;;;;;;18.83;12.13;;;;;;;;;;5049356;28;20842;-43
2021/06/06 01:02:33;;;;;;;19.67;9.70;;;;;;;;;;5049076;28;20024;-42
2021/06/06 01:04:59;;;;;;;31.10;20.42;;;;;;;;;;5049293;28;21777;-43
2021/06/06 01:07:25;;;;;;;17.70;9.63;;;;;;;;;;5049252;28;20098;-43
2021/06/06 01:09:51;;;;;;;18.95;7.50;;;;;;;;;;5048998;28;20024;-42
2021/06/06 01:12:23;;;;;;;11.85;7.82;;;;;;;;;;5048958;28;20059;-42
2021/06/06 01:14:59;;;;;;;15.70;8.35;;;;;;;;;;5048523;28;20028;-43
2021/06/06 01:17:36;;;;;;;17.77;10.15;;;;;;;;;;5048483;28;20024;-40
2021/06/06 01:20:08;;;;;;;15.93;9.45;;;;;;;;;;5048381;28;20021;-43
2021/06/06 01:22:50;;;;;;;19.70;10.48;;;;;;;;;;5047878;28;20028;-42
2021/06/06 01:25:24;;;;;;;17.42;11.25;;;;;;;;;;5048449;28;20621;-41
2021/06/06 01:28:04;;;;;;;24.23;15.70;;;;;;;;;;5048712;28;20029;-42
2021/06/06 01:30:32;;;;;;;23.38;13.35;;;;;;;;;;5048383;28;20024;-42
2021/06/06 01:33:01;;;;;;;18.15;12.25;;;;;;;;;;5048071;28;20037;-41
2021/06/06 01:35:38;;;;;;;19.52;10.77;;;;;;;;;;5048789;28;20811;-42
2021/06/06 01:38:07;;;;;;;13.93;8.40;;;;;;;;;;5048076;28;21719;-43
2021/06/06 01:40:35;;;;;;;16.35;9.10;;;;;;;;;;5048627;28;20020;-41
2021/06/06 01:43:09;;;;;;;19.15;10.85;;;;;;;;;;5048005;28;20032;-42
2021/06/06 01:45:37;;;;;;;12.90;7.65;;;;;;;;;;5047880;28;20081;-42
2021/06/06 01:48:07;;;;;;;13.13;8.60;;;;;;;;;;5048046;28;20028;-42
2021/06/06 01:50:36;;;;;;;14.05;8.43;;;;;;;;;;5048075;28;20048;-41
2021/06/06 01:53:04;;;;;;;22.38;11.65;;;;;;;;;;5046569;28;20504;-41
2021/06/06 01:55:32;;;;;;;25.15;10.75;;;;;;;;;;5055406;28;20038;-42
2021/06/06 01:58:00;;;;;;;20.58;12.38;;;;;;;;;;5075465;28;20059;-42
2021/06/06 02:00:29;;;;;;;16.02;9.93;;;;;;;;;;5057263;28;20028;-43
2021/06/06 02:02:55;;;;;;;13.88;8.88;;;;;;;;;;5075348;28;20051;-43
2021/06/06 02:05:21;;;;;;;25.23;12.90;;;;;;;;;;5075084;28;20020;-43
2021/06/06 02:07:49;;;;;;;17.05;8.63;;;;;;;;;;5074996;28;20078;-43
2021/06/06 02:10:16;;;;;;;18.35;9.15;;;;;;;;;;5075203;28;20024;-43
2021/06/06 02:12:43;;;;;;;10.80;8.02;;;;;;;;;;5075072;28;20047;-43
2021/06/06 02:15:11;;;;;;;14.93;7.35;;;;;;;;;;5074709;28;20035;-42
2021/06/06 02:17:37;;;;;;;17.33;8.25;;;;;;;;;;5074995;28;20025;-43
2021/06/06 02:20:05;;;;;;;15.18;8.70;;;;;;;;;;5056122;28;20425;-43
2021/06/06 02:22:32;;;;;;;11.30;7.43;;;;;;;;;;5074772;28;20028;-42
2021/06/06 02:25:01;;;;;;;12.02;7.60;;;;;;;;;;5074764;28;20024;-43
2021/06/06 02:27:35;;;;;;;16.13;8.98;;;;;;;;;;5074876;28;20141;-42
2021/06/06 02:30:01;;;;;;;13.32;9.68;;;;;;;;;;5074784;28;20029;-43
2021/06/06 02:32:33;;;;;;;27.50;15.57;;;;;;;;;;5074388;28;20036;-43
2021/06/06 02:34:59;;;;;;;16.75;12.70;;;;;;;;;;5074621;28;20020;-43
2021/06/06 02:37:34;;;;;;;28.42;16.80;;;;;;;;;;5074900;28;20091;-43
2021/06/06 02:40:03;;;;;;;25.70;16.40;;;;;;;;;;5074646;28;20050;-43
2021/06/06 02:42:31;;;;;;;27.95;14.27;;;;;;;;;;5074355;28;20031;-42
2021/06/06 02:45:02;;;;;;;23.75;17.20;;;;;;;;;;5074199;28;20032;-43
2021/06/06 02:47:30;;;;;;;30.83;14.02;;;;;;;;;;5074490;28;20028;-43
2021/06/06 02:49:57;;;;;;;16.42;9.80;;;;;;;;;;5074086;28;20024;-42
2021/06/06 02:52:39;;;;;;;17.40;8.00;;;;;;;;;;5073996;28;20043;-43
2021/06/06 02:55:16;;;;;;;10.18;6.93;;;;;;;;;;5073900;28;20372;-42
2021/06/06 02:57:48;;;;;;;16.98;8.43;;;;;;;;;;5074640;28;20108;-42
2021/06/06 03:00:17;;;;;;;12.85;6.80;;;;;;;;;;5074073;28;20024;-42
2021/06/06 03:02:46;;;;;;;14.75;6.65;;;;;;;;;;5073953;28;20538;-42
2021/06/06 03:05:13;;;;;;;18.30;6.88;;;;;;;;;;5073535;28;20443;-42
2021/06/06 03:07:43;;;;;;;12.63;6.55;;;;;;;;;;5073856;28;20020;-43
2021/06/06 03:10:09;;;;;;;11.60;6.15;;;;;;;;;;5073913;28;20029;-42
2021/06/06 03:12:37;;;;;;;9.73;6.65;;;;;;;;;;5073767;28;20029;-42
2021/06/06 03:15:04;;;;;;;12.60;6.53;;;;;;;;;;5073823;28;20068;-43
2021/06/06 03:17:35;;;;;;;12.20;5.38;;;;;;;;;;5073658;28;20097;-44
2021/06/06 03:20:05;;;;;;;11.93;6.00;;;;;;;;;;5073642;28;20024;-43
2021/06/06 03:22:33;;;;;;;14.32;6.15;;;;;;;;;;5073597;28;20115;-41
2021/06/06 03:25:01;;;;;;;13.73;5.85;;;;;;;;;;5073829;28;20451;-43
2021/06/06 03:27:28;;;;;;;9.02;5.53;;;;;;;;;;5073540;28;20017;-42
2021/06/06 03:30:03;;;;;;;12.35;6.30;;;;;;;;;;5054848;28;20392;-43
2021/06/06 03:32:32;;;;;;;17.48;8.07;;;;;;;;;;5073402;28;20037;-43
2021/06/06 03:34:58;;;;;;;16.20;12.07;;;;;;;;;;5073518;28;20029;-43
2021/06/06 03:37:24;;;;;;;15.45;9.38;;;;;;;;;;5073744;28;20020;-43
2021/06/06 03:39:51;;;;;;;11.73;9.88;;;;;;;;;;5073549;28;20021;-43
2021/06/06 03:42:17;;;;;;;13.23;8.05;;;;;;;;;;5073491;28;20028;-42
2021/06/06 03:44:44;;;;;;;15.13;7.38;;;;;;;;;;5073417;28;20028;-42
2021/06/06 03:47:10;;;;;;;11.20;6.57;;;;;;;;;;5073507;28;20048;-42
2021/06/06 03:49:36;;;;;;;10.75;6.20;;;;;;;;;;5073259;28;20027;-42
2021/06/06 03:52:03;;;;;;;11.45;6.07;;;;;;;;;;5072943;28;20504;-42
2021/06/06 03:54:29;;;;;;;8.45;5.20;;;;;;;;;;5073354;28;20493;-42
2021/06/06 03:56:55;;;;;;;13.15;5.50;;;;;;;;;;5073458;28;20024;-42
2021/06/06 03:59:22;;;;;;;8.68;5.60;;;;;;;;;;5073120;28;20027;-43
2021/06/06 04:01:48;;;;;;;8.27;5.15;;;;;;;;;;5073258;28;20515;-43
2021/06/06 04:04:15;;;;;;;11.02;5.30;;;;;;;;;;5073296;28;20021;-43
2021/06/06 04:06:41;;;;;;;13.38;6.10;;;;;;;;;;5073465;28;20052;-42
2021/06/06 04:09:07;;;;;;;11.65;6.07;;;;;;;;;;5073110;28;20020;-42
2021/06/06 04:11:33;;;;;;;8.45;5.07;;;;;;;;;;5073224;28;20032;-42
2021/06/06 04:13:59;;;;;;;8.75;5.00;;;;;;;;;;5073125;28;20023;-44
2021/06/06 04:16:25;;;;;;;10.98;6.00;;;;;;;;;;5074030;28;20024;-45
2021/06/06 04:18:52;;;;;;;12.27;6.28;;;;;;;;;;5077125;28;20025;-48
2021/06/06 04:21:20;;;;;;;11.02;5.85;;;;;;;;;;5076928;28;20036;-43
2021/06/06 04:23:46;;;;;;;13.85;5.60;;;;;;;;;;5077510;28;20082;-43
2021/06/06 04:26:14;;;;;;;10.15;6.20;;;;;;;;;;5077129;28;20029;-42
2021/06/06 04:28:40;;;;;;;14.43;8.02;;;;;;;;;;5077130;28;20507;-42
2021/06/06 04:31:08;;;;;;;23.35;13.50;;;;;;;;;;5076669;28;20029;-42
2021/06/06 04:33:34;;;;;;;15.30;10.57;;;;;;;;;;5076754;28;20366;-42
2021/06/06 04:36:00;;;;;;;12.82;8.98;;;;;;;;;;5076995;28;20027;-42
2021/06/06 04:38:28;;;;;;;14.05;6.82;;;;;;;;;;5077025;28;20029;-42
2021/06/06 04:40:56;;;;;;;11.88;5.80;;;;;;;;;;5077053;28;20025;-42
2021/06/06 04:43:22;;;;;;;11.32;5.65;;;;;;;;;;5076895;28;20040;-42
2021/06/06 04:45:48;;;;;;;10.02;6.15;;;;;;;;;;5057956;28;20036;-41
2021/06/06 04:48:17;;;;;;;38.33;6.90;;;;;;;;;;5076571;28;20025;-42
2021/06/06 04:50:44;;;;;;;20.02;6.43;;;;;;;;;;5076432;28;20044;-42
2021/06/06 04:53:10;;;;;;;12.63;6.85;;;;;;;;;;5076429;28;20044;-42
2021/06/06 04:55:36;;;;;;;12.40;6.38;;;;;;;;;;5076528;28;20016;-41
2021/06/06 04:58:03;;;;;;;11.77;6.70;;;;;;;;;;5076508;28;20028;-42
2021/06/06 05:00:30;;;;;;;11.18;6.15;;;;;;;;;;5076296;28;20056;-42
2021/06/06 05:02:57;;;;;;;10.65;5.93;;;;;;;;;;5076161;28;20470;-42
2021/06/06 05:05:23;;;;;;;7.63;5.65;;;;;;;;;;5076249;28;20024;-43
2021/06/06 05:07:53;;;;;;;10.10;8.32;;;;;;;;;;5076200;28;20153;-42
2021/06/06 05:10:23;;;;;;;8.02;5.50;;;;;;;;;;5076071;28;20052;-42
2021/06/06 05:12:49;;;;;;;9.45;5.57;;;;;;;;;;5076171;28;20515;-43
2021/06/06 05:15:16;;;;;;;9.73;5.38;;;;;;;;;;5076192;28;20349;-42
2021/06/06 05:17:44;;;;;;;14.80;6.43;;;;;;;;;;5076032;28;20522;-42
2021/06/06 05:20:12;;;;;;;15.63;5.72;;;;;;;;;;5075829;28;20472;-43
2021/06/06 05:22:40;;;;;;;11.93;5.93;;;;;;;;;;5076053;28;20423;-42
2021/06/06 05:25:07;;;;;;;9.13;5.30;;;;;;;;;;5076293;28;20019;-42
2021/06/06 05:27:33;;;;;;;10.25;5.90;;;;;;;;;;5075493;28;20029;-43
2021/06/06 05:30:00;;;;;;;8.90;5.68;;;;;;;;;;5075915;28;20555;-43
2021/06/06 05:32:26;;;;;;;9.80;6.53;;;;;;;;;;5075538;28;20480;-42
2021/06/06 05:34:52;;;;;;;7.80;5.35;;;;;;;;;;5075761;28;20027;-43
2021/06/06 05:37:18;;;;;;;12.93;6.00;;;;;;;;;;5076013;28;20048;-42
2021/06/06 05:39:44;;;;;;;14.15;6.43;;;;;;;;;;5075726;28;20027;-42
2021/06/06 05:42:11;;;;;;;13.25;6.50;;;;;;;;;;5075733;28;20020;-43
2021/06/06 05:44:38;;;;;;;18.52;6.55;;;;;;;;;;5075710;28;20112;-42
2021/06/06 05:47:05;;;;;;;16.58;6.65;;;;;;;;;;5075307;28;20460;-42
2021/06/06 05:49:31;;;;;;;17.00;6.40;;;;;;;;;;5075610;28;20032;-42
2021/06/06 05:52:00;;;;;;;10.45;5.55;;;;;;;;;;5075200;28;20067;-43
2021/06/06 05:54:26;;;;;;;12.52;6.05;;;;;;;;;;5075873;28;20012;-43
2021/06/06 05:56:52;;;;;;;11.73;5.18;;;;;;;;;;5075389;28;20025;-43
2021/06/06 05:59:18;;;;;;;12.32;5.18;;;;;;;;;;5075288;28;20048;-43
2021/06/06 06:01:46;;;;;;;15.27;5.55;;;;;;;;;;5075046;28;20029;-43
2021/06/06 06:04:12;;;;;;;10.07;5.43;;;;;;;;;;5075073;28;20153;-42
2021/06/06 06:06:38;;;;;;;10.13;5.38;;;;;;;;;;5075207;28;20103;-42
2021/06/06 06:09:05;;;;;;;13.65;5.72;;;;;;;;;;5075209;28;20369;-42
2021/06/06 06:11:31;;;;;;;13.98;4.88;;;;;;;;;;5074960;28;20064;-42
2021/06/06 06:13:58;;;;;;;15.32;5.00;;;;;;;;;;5074987;28;20036;-42
2021/06/06 06:16:26;;;;;;;11.75;5.05;;;;;;;;;;5074834;28;20101;-41
2021/06/06 06:18:52;;;;;;;11.70;5.00;;;;;;;;;;5075049;28;20028;-42
2021/06/06 06:21:19;;;;;;;8.80;4.70;;;;;;;;;;5074856;28;20037;-42
2021/06/06 06:23:45;;;;;;;21.25;6.05;;;;;;;;;;5074837;28;20029;-43
2021/06/06 06:26:12;;;;;;;32.33;14.63;;;;;;;;;;5074589;28;20495;-42
2021/06/06 06:28:38;;;;;;;37.50;19.83;;;;;;;;;;5074611;28;20477;-43
2021/06/06 06:31:04;;;;;;;18.73;6.25;;;;;;;;;;5074543;28;20064;-43
2021/06/06 06:33:31;;;;;;;18.25;7.68;;;;;;;;;;5074659;28;20025;-43
2021/06/06 06:35:57;;;;;;;28.35;16.70;;;;;;;;;;5074528;28;20494;-43
2021/06/06 06:38:26;;;;;;;24.30;11.15;;;;;;;;;;5074354;28;20021;-42
2021/06/06 06:40:52;;;;;;;13.63;5.47;;;;;;;;;;5073897;28;20040;-42
2021/06/06 06:43:18;;;;;;;30.80;18.25;;;;;;;;;;5074743;28;20020;-43
2021/06/06 06:45:44;;;;;;;34.13;18.67;;;;;;;;;;5074344;28;20111;-43
2021/06/06 06:48:11;;;;;;;36.72;19.13;;;;;;;;;;5056261;28;20025;-42
2021/06/06 06:50:37;;;;;;;23.13;6.50;;;;;;;;;;5073997;28;20045;-43
2021/06/06 06:53:03;;;;;;;9.93;5.72;;;;;;;;;;5074134;28;20055;-43
2021/06/06 06:55:30;;;;;;;19.30;8.43;;;;;;;;;;5074504;28;20058;-42
2021/06/06 06:57:57;;;;;;;10.20;6.25;;;;;;;;;;5074268;28;20027;-43
2021/06/06 07:00:25;;;;;;;13.52;5.93;;;;;;;;;;5074048;28;20021;-43
2021/06/06 07:02:51;;;;;;;15.00;5.47;;;;;;;;;;5073871;28;20498;-42
2021/06/06 07:05:17;;;;;;;68.00;50.38;;;;;;;;;;5073825;28;20021;-42
2021/06/06 07:07:43;;;;;;;53.88;36.63;;;;;;;;;;5073887;28;20031;-43
2021/06/06 07:10:10;;;;;;;24.60;14.73;;;;;;;;;;5073905;28;20173;-42
2021/06/06 07:12:37;;;;;;;27.85;15.05;;;;;;;;;;5073765;28;20032;-42
2021/06/06 07:15:05;;;;;;;19.27;8.13;;;;;;;;;;5073553;28;20036;-42
2021/06/06 07:17:34;;;;;;;26.80;14.30;;;;;;;;;;5073291;28;20481;-43
2021/06/06 07:20:02;;;;;;;101.88;60.72;;;;;;;;;;5073196;28;20021;-42
2021/06/06 07:22:28;;;;;;;55.30;28.35;;;;;;;;;;5073485;28;20024;-42
2021/06/06 07:24:54;;;;;;;90.90;57.95;;;;;;;;;;5073599;28;20052;-42
2021/06/06 07:27:20;;;;;;;132.32;68.03;;;;;;;;;;5073422;28;20029;-43
2021/06/06 07:29:48;;;;;;;34.30;21.48;;;;;;;;;;5073548;28;20031;-43
2021/06/06 07:32:14;;;;;;;36.92;23.23;;;;;;;;;;5073254;28;20476;-43
2021/06/06 07:34:40;;;;;;;54.55;33.70;;;;;;;;;;5073394;28;20024;-44
2021/06/06 07:37:07;;;;;;;39.35;25.77;;;;;;;;;;5073405;28;20472;-44
2021/06/06 07:39:34;;;;;;;36.78;21.70;;;;;;;;;;5073285;28;20028;-43
2021/06/06 07:42:00;;;;;;;33.38;18.05;;;;;;;;;;5073373;28;20537;-43
2021/06/06 07:44:28;;;;;;;82.15;51.75;;;;;;;;;;5073356;28;20168;-42
2021/06/06 07:46:54;;;;;;;17.92;7.40;;;;;;;;;;5073322;28;20035;-43
2021/06/06 07:49:21;;;;;;;11.50;7.00;;;;;;;;;;5073252;28;20078;-43
2021/06/06 07:51:47;;;;;;;15.43;7.45;;;;;;;;;;5072881;28;20059;-43
2021/06/06 07:54:13;;;;;;;40.00;25.55;;;;;;;;;;5073315;28;20027;-44
2021/06/06 07:56:39;;;;;;;33.10;19.80;;;;;;;;;;5073289;28;20059;-44
2021/06/06 07:59:06;;;;;;;12.57;5.65;;;;;;;;;;5054396;28;20033;-43
2021/06/06 08:01:32;;;;;;;17.38;10.07;;;;;;;;;;5073004;28;20025;-44
2021/06/06 08:03:59;;;;;;;17.92;9.40;;;;;;;;;;5073313;28;20059;-42
2021/06/06 08:06:27;;;;;;;18.52;9.75;;;;;;;;;;5073308;28;20032;-43
2021/06/06 08:08:54;;;;;;;15.38;6.18;;;;;;;;;;5073047;28;20048;-43
2021/06/06 08:11:21;;;;;;;7.55;4.75;;;;;;;;;;5071569;28;20043;-40
2021/06/06 08:13:47;;;;;;;10.38;4.75;;;;;;;;;;5071596;28;20012;-42
2021/06/06 08:16:13;;;;;;;13.45;5.55;;;;;;;;;;5072543;28;20439;-42
2021/06/06 08:18:41;;;;;;;13.10;6.95;;;;;;;;;;5072865;28;20028;-43
2021/06/06 08:21:20;;;;;;;81.35;43.20;;;;;;;;;;5072376;28;20025;-44
2021/06/06 08:23:46;;;;;;;24.27;10.70;;;;;;;;;;5072820;28;20380;-43
2021/06/06 08:26:13;;;;;;;34.72;19.55;;;;;;;;;;5073013;28;20464;-43
2021/06/06 08:28:39;;;;;;;15.77;6.55;;;;;;;;;;5072865;28;20070;-42
2021/06/06 08:31:09;;;;;;;11.02;7.35;;;;;;;;;;5072823;28;20028;-43
2021/06/06 08:33:38;;;;;;;12.80;7.28;;;;;;;;;;5072746;28;20027;-42
2021/06/06 08:36:06;;;;;;;19.83;9.38;;;;;;;;;;5072814;28;20161;-44
2021/06/06 08:38:33;;;;;;;11.20;7.32;;;;;;;;;;5072848;28;20020;-47
2021/06/06 08:41:02;;;;;;;25.48;11.63;;;;;;;;;;5072439;28;20024;-43
2021/06/06 08:43:50;;;;;;;26.05;16.42;;;;;;;;;;5072564;28;20031;-44
2021/06/06 08:46:17;;;;;;;45.65;33.47;;;;;;;;;;5054848;28;20109;-45
2021/06/06 08:48:44;;;;;;;35.80;23.17;;;;;;;;;;5044612;28;20190;-44
2021/06/06 08:51:13;;;;;;;20.33;13.55;;;;;;;;;;5045275;28;20060;-43
2021/06/06 08:53:49;;;;;;;11.63;9.18;;;;;;;;;;5045305;28;20031;-43
2021/06/06 08:56:36;;;;;;;14.70;7.68;;;;;;;;;;5045075;28;20033;-44
2021/06/06 08:59:08;;;;;;;14.82;9.35;;;;;;;;;;5045008;28;20135;-44
2021/06/06 09:01:40;;;;;;;23.88;9.90;;;;;;;;;;5045393;28;20025;-44
2021/06/06 09:04:15;;;;;;;22.75;10.00;;;;;;;;;;5048546;28;20035;-44
2021/06/06 09:07:02;;;;;;;32.53;11.93;;;;;;;;;;5048829;28;20033;-44
2021/06/06 09:09:30;;;;;;;27.35;11.40;;;;;;;;;;5049053;28;20039;-43
2021/06/06 09:12:00;;;;;;;50.15;24.63;;;;;;;;;;5048648;28;20036;-42
2021/06/06 09:14:27;;;;;;;49.03;27.30;;;;;;;;;;5048968;28;20938;-42
2021/06/06 09:16:58;;;;;;;28.75;16.52;;;;;;;;;;5048121;28;20275;-43
2021/06/06 09:19:24;;;;;;;;;;;;;;;;;;5048814;28;20031;-39
2021/06/06 09:21:52;;;;;;;41.75;22.05;;;;;;;;;;5048383;28;19916;-42
2021/06/06 09:24:23;;;;;;;30.45;18.40;;;;;;;;;;5048407;28;20119;-42
2021/06/06 09:26:50;;;;;;;13.43;9.52;;;;;;;;;;5048785;28;20385;-42
2021/06/06 09:29:16;;;;;;;14.35;8.02;;;;;;;;;;5048219;28;20135;-43
2021/06/06 09:31:42;;;;;;;14.32;9.43;;;;;;;;;;5048534;28;20547;-42
2021/06/06 09:34:09;;;;;;;19.20;9.20;;;;;;;;;;5048129;28;20043;-42
2021/06/06 09:36:37;;;;;;;22.30;13.27;;;;;;;;;;5048192;28;20144;-43
2021/06/06 09:39:06;;;;;;;19.23;10.80;;;;;;;;;;5048830;28;20023;-42
2021/06/06 09:41:38;;;;;;;19.38;9.18;;;;;;;;;;5048351;28;20028;-42
2021/06/06 09:44:07;;;;;;;24.48;12.70;;;;;;;;;;5048168;28;20035;-42
2021/06/06 09:46:39;;;;;;;22.15;10.70;;;;;;;;;;5047894;28;20129;-42
2021/06/06 09:49:11;;;;;;;17.20;11.75;;;;;;;;;;5048292;28;20488;-42
2021/06/06 09:51:37;;;;;;;16.08;11.88;;;;;;;;;;5047904;28;20544;-43
2021/06/06 09:54:11;;;;;;;17.85;10.05;;;;;;;;;;5048021;28;20028;-41
2021/06/06 09:56:38;;;;;;;21.83;13.25;;;;;;;;;;5029248;28;20042;-43
2021/06/06 09:59:08;;;;;;;13.70;10.32;;;;;;;;;;5047549;28;20025;-43
2021/06/06 10:01:36;;;;;;;26.33;16.07;;;;;;;;;;5047668;28;20020;-43
2021/06/06 10:04:06;;;;;;;25.52;18.95;;;;;;;;;;5047840;28;20021;-42
2021/06/06 10:06:32;;;;;;;50.85;35.28;;;;;;;;;;5047590;28;20523;-42
2021/06/06 10:08:58;;;;;;;35.78;25.33;;;;;;;;;;5047893;28;20067;-42
2021/06/06 10:11:31;;;;;;;30.25;20.67;;;;;;;;;;5047384;28;20037;-42
2021/06/06 10:13:57;;;;;;;38.33;19.63;;;;;;;;;;5046470;28;20033;-43
2021/06/06 10:16:41;;;;;;;18.95;14.25;;;;;;;;;;5047678;28;20028;-42
2021/06/06 10:19:26;;;;;;;20.77;16.23;;;;;;;;;;5047322;28;20432;-43
2021/06/06 10:21:53;;;;;;;16.17;10.32;;;;;;;;;;5047443;28;20249;-43
2021/06/06 10:24:39;;;;;;;20.17;12.27;;;;;;;;;;5047437;28;20052;-42
2021/06/06 10:27:11;;;;;;;18.98;11.68;;;;;;;;;;5047862;28;20031;-43
2021/06/06 10:29:40;;;;;;;16.20;11.60;;;;;;;;;;5047607;28;20028;-43
2021/06/06 10:32:15;;;;;;;29.40;16.15;;;;;;;;;;5047050;28;20889;-43
2021/06/06 10:34:54;;;;;;;28.10;19.30;;;;;;;;;;5046813;28;20118;-43
2021/06/06 10:37:20;;;;;;;23.80;15.55;;;;;;;;;;5047406;28;20029;-43
2021/06/06 10:39:57;;;;;;;28.23;20.88;;;;;;;;;;5047517;28;20558;-42
2021/06/06 10:42:26;;;;;;;28.52;22.38;;;;;;;;;;5047212;28;20989;-43
2021/06/06 10:44:58;;;;;;;33.00;22.52;;;;;;;;;;5047079;28;20516;-42
2021/06/06 10:47:27;;;;;;;80.65;60.80;;;;;;;;;;5047074;28;20029;-42
2021/06/06 10:49:58;;;;;;;25.17;18.25;;;;;;;;;;5047133;28;20472;-43
2021/06/06 10:52:24;;;;;;;;;;;;;;;;;;5047253;28;20048;-41
2021/06/06 10:54:58;;;;;;;17.80;12.63;;;;;;;;;;5046868;28;19962;-43
2021/06/06 10:57:24;;;;;;;19.90;12.77;;;;;;;;;;5046651;28;20036;-43
2021/06/06 10:59:53;;;;;;;36.25;28.15;;;;;;;;;;5046722;28;20016;-43
2021/06/06 11:02:45;;;;;;;14.35;12.80;;;;;;;;;;5046365;28;20108;-43
2021/06/06 11:05:30;;;;;;;51.08;34.03;;;;;;;;;;4947786;28;20117;-42
2021/06/06 11:07:56;;;;;;;20.08;16.75;;;;;;;;;;4948035;28;20905;-42
2021/06/06 11:10:25;;;;;;;21.63;16.85;;;;;;;;;;4947874;28;21231;-43
2021/06/06 11:12:53;;;;;;;27.33;18.67;;;;;;;;;;4947794;28;20049;-43
2021/06/06 11:15:29;;;;;;;15.93;13.15;;;;;;;;;;4947804;28;20098;-43
2021/06/06 11:18:06;;;;;;;19.25;16.73;;;;;;;;;;4947732;28;20049;-42
2021/06/06 11:20:34;;;;;;;16.33;13.30;;;;;;;;;;4947468;28;20042;-43
2021/06/06 11:23:11;;;;;;;13.82;12.30;;;;;;;;;;4947381;28;20784;-43
2021/06/06 11:25:40;;;;;;;14.00;11.10;;;;;;;;;;4947724;28;20039;-43
2021/06/06 11:28:09;;;;;;;19.48;15.80;;;;;;;;;;4947740;28;20390;-44
2021/06/06 11:30:37;;;;;;;20.75;16.35;;;;;;;;;;4947735;28;20071;-44
2021/06/06 11:33:08;;;;;;;23.80;16.10;;;;;;;;;;4947255;28;20143;-43
2021/06/06 11:35:37;;;;;;;28.40;20.95;;;;;;;;;;4947533;28;20121;-42
2021/06/06 11:38:12;;;;;;;25.70;19.67;;;;;;;;;;4947583;28;20038;-43
2021/06/06 11:40:40;;;;;;;24.88;19.00;;;;;;;;;;4947448;28;20566;-43
2021/06/06 11:43:12;;;;;;;26.15;18.48;;;;;;;;;;5040283;28;20140;-44
2021/06/06 11:45:41;;;;;;;35.92;25.17;;;;;;;;;;5046506;28;20029;-43
2021/06/06 11:48:13;;;;;;;18.65;15.32;;;;;;;;;;5046036;28;20025;-43
2021/06/06 11:50:42;;;;;;;24.63;19.00;;;;;;;;;;5046068;28;20033;-43
2021/06/06 11:53:22;;;;;;;22.00;17.55;;;;;;;;;;5046051;28;20053;-42
2021/06/06 11:55:51;;;;;;;41.23;31.83;;;;;;;;;;5045743;28;20032;-43
2021/06/06 11:58:20;;;;;;;31.55;24.35;;;;;;;;;;5046036;28;20877;-42
2021/06/06 12:00:51;;;;;;;33.22;25.30;;;;;;;;;;5045931;28;21620;-44
2021/06/06 12:03:18;;;;;;;;;;;;;;;;;;5046511;28;20029;-40
2021/06/06 12:05:57;;;;;;;22.20;19.80;;;;;;;;;;5045885;28;20342;-42
2021/06/06 12:08:50;;;;;;;81.25;63.75;;;;;;;;;;5045740;28;20032;-43
2021/06/06 12:11:16;;;;;;;73.60;48.40;;;;;;;;;;5040532;28;20437;-41
2021/06/06 12:13:42;;;;;;;37.40;26.23;;;;;;;;;;5045520;28;20021;-41
2021/06/06 12:16:13;;;;;;;17.40;13.68;;;;;;;;;;5043923;28;20099;-43
2021/06/06 12:18:39;;;;;;;;;;;;;;;;;;5046269;28;20029;-40
2021/06/06 12:21:10;;;;;;;21.80;13.18;;;;;;;;;;5045965;28;19923;-43
2021/06/06 12:24:03;;;;;;;26.75;17.67;;;;;;;;;;5045450;28;20068;-43
2021/06/06 12:26:31;;;;;;;40.97;26.35;;;;;;;;;;5021708;28;20912;-42
2021/06/06 12:28:58;;;;;;;35.53;24.55;;;;;;;;;;5045408;28;20063;-43
2021/06/06 12:31:27;;;;;;;36.83;28.67;;;;;;;;;;5045834;28;20043;-42
2021/06/06 12:33:53;;;;;;;34.28;27.05;;;;;;;;;;5045458;28;20036;-43
2021/06/06 12:36:24;;;;;;;18.13;14.60;;;;;;;;;;5046230;28;20085;-44
2021/06/06 12:38:54;;;;;;;34.95;26.67;;;;;;;;;;5048711;28;20024;-44
2021/06/06 12:41:20;;;;;;;15.10;12.73;;;;;;;;;;5049499;28;20427;-42
2021/06/06 12:43:51;;;;;;;13.63;11.45;;;;;;;;;;5049141;28;21078;-44
2021/06/06 12:46:17;;;;;;;15.57;12.23;;;;;;;;;;5047541;28;20106;-42
2021/06/06 12:48:56;;;;;;;25.77;19.77;;;;;;;;;;5049223;28;20541;-42
2021/06/06 12:51:24;;;;;;;16.10;12.57;;;;;;;;;;5048708;28;20056;-41
2021/06/06 12:53:51;;;;;;;16.05;12.68;;;;;;;;;;5048946;28;20810;-44
2021/06/06 12:56:24;;;;;;;14.27;11.27;;;;;;;;;;5049158;28;20583;-44
2021/06/06 12:58:52;;;;;;;14.55;10.75;;;;;;;;;;5049717;28;20024;-42
2021/06/06 13:01:26;;;;;;;15.38;11.57;;;;;;;;;;5048950;28;20031;-42
2021/06/06 13:03:53;;;;;;;30.92;22.02;;;;;;;;;;5048501;28;20026;-42
2021/06/06 13:06:19;;;;;;;20.65;14.65;;;;;;;;;;5049076;28;20024;-43
2021/06/06 13:08:45;;;;;;;29.60;22.88;;;;;;;;;;5048749;28;20024;-42
2021/06/06 13:11:14;;;;;;;17.05;14.60;;;;;;;;;;5048680;28;20036;-42
2021/06/06 13:13:44;;;;;;;13.48;11.48;;;;;;;;;;5048485;28;20036;-42
2021/06/06 13:16:16;;;;;;;15.80;13.32;;;;;;;;;;5032915;28;20162;-42
2021/06/06 13:18:42;;;;;;;18.27;11.32;;;;;;;;;;5048439;28;20107;-43
2021/06/06 13:21:16;;;;;;;13.88;10.30;;;;;;;;;;5048289;28;20048;-43
2021/06/06 13:23:43;;;;;;;11.35;10.15;;;;;;;;;;5048817;28;20078;-43
2021/06/06 13:26:09;;;;;;;12.60;10.13;;;;;;;;;;5048588;28;20029;-43
2021/06/06 13:28:35;;;;;;;12.48;9.80;;;;;;;;;;5048497;28;20029;-43
2021/06/06 13:31:17;;;;;;;13.15;10.15;;;;;;;;;;5046905;28;20021;-44
2021/06/06 13:33:43;;;;;;;12.00;9.55;;;;;;;;;;5048713;28;20091;-44
2021/06/06 13:36:10;;;;;;;10.85;9.38;;;;;;;;;;5048362;28;21719;-44
2021/06/06 13:38:37;;;;;;;14.80;11.90;;;;;;;;;;5048091;28;20132;-40
2021/06/06 13:41:05;;;;;;;40.90;31.40;;;;;;;;;;5048246;28;20811;-44
2021/06/06 13:43:34;;;;;;;17.02;14.48;;;;;;;;;;5048310;28;20032;-43
2021/06/06 13:46:00;;;;;;;25.10;18.63;;;;;;;;;;5047966;28;20028;-43
2021/06/06 13:48:27;;;;;;;17.48;15.05;;;;;;;;;;5047971;28;20020;-43
2021/06/06 13:50:53;;;;;;;12.73;11.43;;;;;;;;;;5047743;28;20037;-44
2021/06/06 13:53:24;;;;;;;13.20;11.90;;;;;;;;;;5048102;28;20161;-45
2021/06/06 13:55:51;;;;;;;12.02;10.15;;;;;;;;;;5048226;28;20017;-44
2021/06/06 13:58:18;;;;;;;11.70;10.50;;;;;;;;;;5047997;28;20435;-45
2021/06/06 14:00:44;;;;;;;10.70;9.63;;;;;;;;;;5047648;28;20549;-44
2021/06/06 14:03:13;;;;;;;13.25;11.95;;;;;;;;;;5048097;28;20036;-42
2021/06/06 14:05:40;;;;;;;15.38;11.70;;;;;;;;;;5047654;28;20025;-43
2021/06/06 14:08:07;;;;;;;12.13;9.50;;;;;;;;;;5047781;28;20039;-43
2021/06/06 14:10:35;;;;;;;13.40;11.43;;;;;;;;;;5031552;28;20029;-44
2021/06/06 14:13:03;;;;;;;11.52;10.32;;;;;;;;;;5047591;28;20033;-44
2021/06/06 14:15:32;;;;;;;14.57;11.18;;;;;;;;;;5047264;28;20449;-43
2021/06/06 14:17:58;;;;;;;11.27;10.07;;;;;;;;;;5047582;28;20028;-44
2021/06/06 14:20:25;;;;;;;12.07;10.63;;;;;;;;;;5047290;28;20059;-43
2021/06/06 14:22:52;;;;;;;13.13;9.95;;;;;;;;;;5047785;28;20048;-44
2021/06/06 14:25:20;;;;;;;13.20;11.60;;;;;;;;;;5047237;28;20036;-44
2021/06/06 14:27:46;;;;;;;11.48;9.52;;;;;;;;;;5047650;28;20507;-44
2021/06/06 14:30:13;;;;;;;11.35;9.55;;;;;;;;;;5046955;28;20033;-44
2021/06/06 14:32:39;;;;;;;12.27;10.15;;;;;;;;;;5047523;28;20043;-44
2021/06/06 14:35:07;;;;;;;14.70;11.10;;;;;;;;;;5047008;28;20023;-43